Aérodrome :
LOGIN :

S'inscrire | Disclaimer

   EN    FR    IT 

 










Légende :    VFR   VFR Marginal   IFR   IFR Intensif   IFR Très Intensif
Visi : 
Plafond : 
>= 8 km
>= 3000ft
5 à 8 km
1000 à 3000 ft
1500m à 5 km
500 à 1000 ft
800 à 1500m
200 à 500 ft
< 800m
< 200 ft
Symboles :   Orages  Brouillard  Fortes neiges  Fortes précipitations  Vent > 20 kt
SIGMETs :   Divers  Orages  Givrage  Turbulence  Onde Orograph.  Cendres Volcan.







- Altitude de l'aérodrome : 776 ft
- Code IATA : RMS


ETAR - Ramstein Air Base

DERNIER METAR :
  • 180156Z 25006KT 9999 BKN027 OVC032 01/M01 A2998 RMK AO2A BKN V OVC SLP166 T0011 $

METARs EXPIRÉS :
  • 180056Z 23008KT 9999 OVC029 01/M01 A2996 RMK SLP158 T0009 $
  • 172356Z 24005KT 9999 BKN029 BKN040 01/M02 A2994 RMK AO2A SLP151 60000 T0010 10027 20008 52020 $

TAF TAF ETAR
Valide du 18 à 02h jusqu'au 19 à 08h UTC


180206Z 1802/1908 25012KT 9999 BKN020 620204 QNH2991INS
BECMG 1804/1805 VRB06KT 6000 BR SCT030 QNH3006INS
TEMPO 1805/1809 4000 BR
BECMG 1808/1809 VRB06KT 9999 NSW SKC QNH3012INS TX04/1813Z TNM02/1806Z
Pas de NOTAMs connus pour ce terrain.



MET'MAP, la Météo Aéronautique d'un coup d'oeil ! - Copyright ORBIFLY Décembre 2007 - Disclaimer

ORBIFLY MET'MAP TEAM :

Programmation & Développement : Alexandra Zaïnal
Conception & Développement : Baudouin d'Aumeries
Co-Programmation & Développement : Marc-Olivier Méhu
Soutien technique & logistique : Manuel Goepfert

Contact : metmap@orbifly.com




SOURCES & CREDITS :

   NOAA